GIA246 WIII-WAHS
Flight info
| Callsign | GIA246 |
|---|---|
| Flight time | 0h 49m |
| Altitude | 25000 |
| Route | CA |
| Aircraft | B738/M-SDE2E3FGHIRWXY/LB1 |
Departure
| Time | 2026-05-09 10:46 |
|---|---|
| Airport | Soekarno-Hatta International Airport (WIII) |
Arrival
| Time | 2026-05-09 11:35 |
|---|---|
| Airport | Jenderal Ahmad Yani Airport (WAHS) |
| Time | Latitude | Longitude | Altitude | Speed | Heading |
|---|---|---|---|---|---|
| 2026-05-09 10:24 | -6.11353 | 106.67010 | 37 ft | 0 kts | 69° |
| 2026-05-09 10:34 | -6.11368 | 106.66977 | 35 ft | 4 kts | 57° |
| 2026-05-09 10:34 | -6.11384 | 106.66957 | 36 ft | 4 kts | 38° |
| 2026-05-09 10:35 | -6.11406 | 106.66947 | 37 ft | 3 kts | 346° |
| 2026-05-09 10:35 | -6.11410 | 106.66948 | 37 ft | 0 kts | 338° |
| 2026-05-09 10:37 | -6.11408 | 106.66947 | 37 ft | 1 kts | 338° |
| 2026-05-09 10:37 | -6.11372 | 106.66933 | 36 ft | 10 kts | 339° |
| 2026-05-09 10:38 | -6.11279 | 106.66894 | 37 ft | 19 kts | 336° |
| 2026-05-09 10:38 | -6.11152 | 106.66832 | 36 ft | 18 kts | 313° |
| 2026-05-09 10:38 | -6.11172 | 106.66705 | 36 ft | 23 kts | 249° |
| 2026-05-09 10:38 | -6.11243 | 106.66527 | 38 ft | 31 kts | 248° |
| 2026-05-09 10:39 | -6.11331 | 106.66302 | 36 ft | 38 kts | 249° |
| 2026-05-09 10:39 | -6.11424 | 106.66069 | 38 ft | 37 kts | 248° |
| 2026-05-09 10:39 | -6.11522 | 106.65831 | 37 ft | 37 kts | 247° |
| 2026-05-09 10:39 | -6.11617 | 106.65591 | 37 ft | 37 kts | 248° |
| 2026-05-09 10:40 | -6.11713 | 106.65350 | 38 ft | 37 kts | 248° |
| 2026-05-09 10:40 | -6.11800 | 106.65120 | 36 ft | 35 kts | 253° |
| 2026-05-09 10:40 | -6.11893 | 106.64894 | 37 ft | 36 kts | 244° |
| 2026-05-09 10:40 | -6.11985 | 106.64665 | 38 ft | 36 kts | 248° |
| 2026-05-09 10:41 | -6.12067 | 106.64456 | 38 ft | 25 kts | 249° |
| 2026-05-09 10:41 | -6.12127 | 106.64307 | 38 ft | 23 kts | 248° |
| 2026-05-09 10:41 | -6.12184 | 106.64163 | 38 ft | 22 kts | 248° |
| 2026-05-09 10:41 | -6.12238 | 106.64029 | 38 ft | 21 kts | 250° |
| 2026-05-09 10:42 | -6.12239 | 106.63913 | 37 ft | 10 kts | 311° |
| 2026-05-09 10:42 | -6.12226 | 106.63902 | 39 ft | 0 kts | 327° |
| 2026-05-09 10:43 | -6.12218 | 106.63897 | 40 ft | 6 kts | 329° |
| 2026-05-09 10:43 | -6.12157 | 106.63898 | 41 ft | 13 kts | 21° |
| 2026-05-09 10:43 | -6.12082 | 106.63931 | 40 ft | 6 kts | 63° |
| 2026-05-09 10:43 | -6.12080 | 106.63937 | 40 ft | 0 kts | 67° |
| 2026-05-09 10:44 | -6.12079 | 106.63938 | 40 ft | 0 kts | 67° |
| 2026-05-09 10:44 | -6.12056 | 106.63995 | 38 ft | 25 kts | 69° |
| 2026-05-09 10:45 | -6.11906 | 106.64370 | 39 ft | 102 kts | 67° |
| 2026-05-09 10:46 | -6.09879 | 106.68268 | 2585 ft | 187 kts | 47° |
| 2026-05-09 10:46 | -6.09015 | 106.69179 | 3246 ft | 196 kts | 47° |
| 2026-05-09 10:46 | -6.08092 | 106.70163 | 3815 ft | 202 kts | 48° |
| 2026-05-09 10:46 | -6.07150 | 106.71170 | 4348 ft | 211 kts | 48° |
| 2026-05-09 10:47 | -6.06096 | 106.72301 | 4527 ft | 237 kts | 48° |
| 2026-05-09 10:47 | -6.05093 | 106.73379 | 4765 ft | 255 kts | 48° |
| 2026-05-09 10:47 | -6.03907 | 106.74653 | 4963 ft | 267 kts | 47° |
| 2026-05-09 10:47 | -6.02743 | 106.75903 | 4972 ft | 274 kts | 47° |
| 2026-05-09 10:48 | -6.01911 | 106.76798 | 4995 ft | 273 kts | 48° |
| 2026-05-09 10:48 | -6.00639 | 106.78166 | 5004 ft | 272 kts | 48° |
| 2026-05-09 10:48 | -5.98986 | 106.79947 | 5009 ft | 270 kts | 49° |
| 2026-05-09 10:48 | -5.98301 | 106.80940 | 5020 ft | 269 kts | 67° |
| 2026-05-09 10:49 | -5.97970 | 106.82741 | 5479 ft | 271 kts | 91° |
| 2026-05-09 10:49 | -5.98286 | 106.84615 | 6356 ft | 272 kts | 106° |
| 2026-05-09 10:49 | -5.99044 | 106.86900 | 7279 ft | 280 kts | 109° |
| 2026-05-09 10:49 | -5.99439 | 106.87994 | 7781 ft | 280 kts | 109° |
| 2026-05-09 10:50 | -6.00047 | 106.89668 | 8539 ft | 282 kts | 109° |
| 2026-05-09 10:50 | -6.00693 | 106.91466 | 9322 ft | 286 kts | 109° |
| 2026-05-09 10:50 | -6.01348 | 106.93313 | 9992 ft | 293 kts | 109° |
| 2026-05-09 10:50 | -6.02034 | 106.95270 | 10442 ft | 309 kts | 109° |
| 2026-05-09 10:51 | -6.02752 | 106.97340 | 10658 ft | 331 kts | 109° |
| 2026-05-09 10:51 | -6.03491 | 106.99481 | 11062 ft | 342 kts | 109° |
| 2026-05-09 10:51 | -6.04230 | 107.01630 | 11707 ft | 345 kts | 108° |
| 2026-05-09 10:51 | -6.05010 | 107.03902 | 12408 ft | 347 kts | 108° |
| 2026-05-09 10:52 | -6.05796 | 107.06199 | 12798 ft | 349 kts | 109° |
| 2026-05-09 10:52 | -6.06591 | 107.08520 | 12830 ft | 353 kts | 109° |
| 2026-05-09 10:52 | -6.07387 | 107.10844 | 12832 ft | 352 kts | 109° |
| 2026-05-09 10:52 | -6.08170 | 107.13132 | 12830 ft | 350 kts | 109° |
| 2026-05-09 10:53 | -6.08946 | 107.15401 | 12840 ft | 352 kts | 109° |
| 2026-05-09 10:53 | -6.09715 | 107.17646 | 13046 ft | 357 kts | 109° |
| 2026-05-09 10:53 | -6.10542 | 107.19804 | 13673 ft | 358 kts | 112° |
| 2026-05-09 10:53 | -6.11501 | 107.22035 | 14266 ft | 360 kts | 114° |
| 2026-05-09 10:54 | -6.12507 | 107.24291 | 14899 ft | 361 kts | 114° |
| 2026-05-09 10:54 | -6.13537 | 107.26589 | 15462 ft | 363 kts | 114° |
| 2026-05-09 10:54 | -6.14553 | 107.28869 | 16004 ft | 368 kts | 114° |
| 2026-05-09 10:54 | -6.15593 | 107.31216 | 16609 ft | 369 kts | 114° |
| 2026-05-09 10:55 | -6.16622 | 107.33554 | 17142 ft | 373 kts | 114° |
| 2026-05-09 10:55 | -6.17671 | 107.35948 | 17699 ft | 376 kts | 114° |
| 2026-05-09 10:55 | -6.18699 | 107.38297 | 18149 ft | 381 kts | 114° |
| 2026-05-09 10:55 | -6.19760 | 107.40727 | 18597 ft | 384 kts | 114° |
| 2026-05-09 10:56 | -6.20813 | 107.43143 | 19104 ft | 384 kts | 114° |
| 2026-05-09 10:56 | -6.21879 | 107.45588 | 19569 ft | 387 kts | 114° |
| 2026-05-09 10:56 | -6.22948 | 107.48042 | 20008 ft | 390 kts | 114° |
| 2026-05-09 10:56 | -6.24039 | 107.50547 | 20391 ft | 394 kts | 114° |
| 2026-05-09 10:57 | -6.25134 | 107.53059 | 20846 ft | 397 kts | 115° |
| 2026-05-09 10:57 | -6.26237 | 107.55593 | 21313 ft | 399 kts | 114° |
| 2026-05-09 10:57 | -6.27313 | 107.58065 | 21867 ft | 398 kts | 115° |
| 2026-05-09 10:57 | -6.28415 | 107.60596 | 22445 ft | 397 kts | 115° |
| 2026-05-09 10:58 | -6.29516 | 107.63126 | 22978 ft | 397 kts | 115° |
| 2026-05-09 10:58 | -6.30609 | 107.65637 | 23501 ft | 397 kts | 115° |
| 2026-05-09 10:58 | -6.31689 | 107.68119 | 23991 ft | 396 kts | 115° |
| 2026-05-09 10:58 | -6.32772 | 107.70608 | 24502 ft | 394 kts | 115° |
| 2026-05-09 10:59 | -6.33850 | 107.73085 | 24995 ft | 393 kts | 115° |
| 2026-05-09 10:59 | -6.34931 | 107.75571 | 25475 ft | 392 kts | 115° |
| 2026-05-09 10:59 | -6.36003 | 107.78034 | 26002 ft | 390 kts | 115° |
| 2026-05-09 10:59 | -6.37070 | 107.80489 | 26500 ft | 390 kts | 115° |
| 2026-05-09 11:00 | -6.38146 | 107.82963 | 26840 ft | 390 kts | 115° |
| 2026-05-09 11:00 | -6.39212 | 107.85417 | 26841 ft | 389 kts | 115° |
| 2026-05-09 11:00 | -6.40282 | 107.87880 | 26862 ft | 389 kts | 115° |
| 2026-05-09 11:00 | -6.41340 | 107.90314 | 26860 ft | 390 kts | 115° |
| 2026-05-09 11:01 | -6.42417 | 107.92792 | 26866 ft | 390 kts | 115° |
| 2026-05-09 11:01 | -6.43491 | 107.95264 | 26864 ft | 390 kts | 115° |
| 2026-05-09 11:01 | -6.44568 | 107.97742 | 26861 ft | 391 kts | 115° |
| 2026-05-09 11:01 | -6.45633 | 108.00194 | 26859 ft | 391 kts | 115° |
| 2026-05-09 11:02 | -6.46714 | 108.02684 | 26856 ft | 391 kts | 115° |
| 2026-05-09 11:02 | -6.47785 | 108.05152 | 26855 ft | 391 kts | 115° |
| 2026-05-09 11:02 | -6.48859 | 108.07627 | 26851 ft | 391 kts | 115° |
| 2026-05-09 11:02 | -6.49919 | 108.10072 | 26853 ft | 391 kts | 115° |
| 2026-05-09 11:03 | -6.50980 | 108.12519 | 26855 ft | 391 kts | 115° |
| 2026-05-09 11:03 | -6.52049 | 108.14986 | 26860 ft | 391 kts | 115° |
| 2026-05-09 11:03 | -6.53118 | 108.17451 | 26859 ft | 391 kts | 115° |
| 2026-05-09 11:03 | -6.54184 | 108.19912 | 26860 ft | 391 kts | 115° |
| 2026-05-09 11:04 | -6.55256 | 108.22387 | 26860 ft | 391 kts | 115° |
| 2026-05-09 11:04 | -6.56346 | 108.24902 | 26861 ft | 392 kts | 115° |
| 2026-05-09 11:04 | -6.57424 | 108.27391 | 26861 ft | 392 kts | 115° |
| 2026-05-09 11:04 | -6.58492 | 108.29858 | 26861 ft | 392 kts | 115° |
| 2026-05-09 11:05 | -6.59574 | 108.32358 | 26859 ft | 392 kts | 115° |
| 2026-05-09 11:05 | -6.60643 | 108.34826 | 26861 ft | 392 kts | 115° |
| 2026-05-09 11:05 | -6.61715 | 108.37303 | 26856 ft | 392 kts | 115° |
| 2026-05-09 11:05 | -6.62797 | 108.39804 | 26856 ft | 392 kts | 115° |
| 2026-05-09 11:06 | -6.63882 | 108.42312 | 26873 ft | 392 kts | 115° |
| 2026-05-09 11:06 | -6.64958 | 108.44800 | 26870 ft | 392 kts | 115° |
| 2026-05-09 11:06 | -6.66035 | 108.47290 | 26866 ft | 392 kts | 115° |
| 2026-05-09 11:06 | -6.67105 | 108.49763 | 26867 ft | 392 kts | 115° |
| 2026-05-09 11:07 | -6.68182 | 108.52253 | 26865 ft | 392 kts | 115° |
| 2026-05-09 11:07 | -6.69262 | 108.54753 | 26866 ft | 391 kts | 115° |
| 2026-05-09 11:07 | -6.70146 | 108.57299 | 26845 ft | 393 kts | 103° |
| 2026-05-09 11:07 | -6.70620 | 108.59941 | 26874 ft | 393 kts | 100° |
| 2026-05-09 11:08 | -6.71018 | 108.62645 | 26873 ft | 393 kts | 99° |
| 2026-05-09 11:08 | -6.71398 | 108.65350 | 26871 ft | 393 kts | 99° |
| 2026-05-09 11:08 | -6.71787 | 108.68048 | 26858 ft | 394 kts | 100° |
| 2026-05-09 11:08 | -6.72188 | 108.70727 | 26858 ft | 394 kts | 100° |
| 2026-05-09 11:09 | -6.72606 | 108.73432 | 26855 ft | 394 kts | 100° |
| 2026-05-09 11:09 | -6.73017 | 108.76045 | 26853 ft | 394 kts | 101° |
| 2026-05-09 11:09 | -6.73414 | 108.78543 | 26854 ft | 394 kts | 101° |
| 2026-05-09 11:09 | -6.73831 | 108.81152 | 26856 ft | 394 kts | 101° |
| 2026-05-09 11:10 | -6.74258 | 108.83816 | 26853 ft | 394 kts | 101° |
| 2026-05-09 11:10 | -6.74679 | 108.86448 | 26658 ft | 390 kts | 101° |
| 2026-05-09 11:10 | -6.75094 | 108.89046 | 26415 ft | 383 kts | 101° |
| 2026-05-09 11:10 | -6.75489 | 108.91521 | 26178 ft | 372 kts | 101° |
| 2026-05-09 11:11 | -6.75881 | 108.93983 | 25938 ft | 362 kts | 101° |
| 2026-05-09 11:11 | -6.76269 | 108.96407 | 25732 ft | 362 kts | 101° |
| 2026-05-09 11:11 | -6.76663 | 108.98870 | 25466 ft | 355 kts | 101° |
| 2026-05-09 11:11 | -6.77040 | 109.01234 | 25152 ft | 346 kts | 101° |
| 2026-05-09 11:12 | -6.77395 | 109.03463 | 24852 ft | 340 kts | 101° |
| 2026-05-09 11:12 | -6.77751 | 109.05689 | 24551 ft | 335 kts | 101° |
| 2026-05-09 11:12 | -6.78116 | 109.07974 | 24235 ft | 332 kts | 101° |
| 2026-05-09 11:12 | -6.78476 | 109.10229 | 23917 ft | 338 kts | 101° |
| 2026-05-09 11:13 | -6.78842 | 109.12513 | 23603 ft | 353 kts | 101° |
| 2026-05-09 11:13 | -6.79223 | 109.14949 | 23191 ft | 356 kts | 100° |
| 2026-05-09 11:13 | -6.79569 | 109.17347 | 22792 ft | 349 kts | 99° |
| 2026-05-09 11:13 | -6.79892 | 109.19669 | 22441 ft | 340 kts | 99° |
| 2026-05-09 11:14 | -6.80213 | 109.21985 | 22098 ft | 332 kts | 99° |
| 2026-05-09 11:14 | -6.80518 | 109.24182 | 21786 ft | 324 kts | 99° |
| 2026-05-09 11:14 | -6.80814 | 109.26300 | 21482 ft | 319 kts | 99° |
| 2026-05-09 11:14 | -6.81124 | 109.28512 | 21162 ft | 315 kts | 99° |
| 2026-05-09 11:15 | -6.81408 | 109.30529 | 20907 ft | 316 kts | 99° |
| 2026-05-09 11:15 | -6.81721 | 109.32747 | 20627 ft | 330 kts | 99° |
| 2026-05-09 11:15 | -6.82051 | 109.35075 | 20264 ft | 338 kts | 99° |
| 2026-05-09 11:15 | -6.82376 | 109.37388 | 19925 ft | 331 kts | 99° |
| 2026-05-09 11:16 | -6.82690 | 109.39618 | 19596 ft | 323 kts | 99° |
| 2026-05-09 11:16 | -6.82996 | 109.41798 | 19284 ft | 316 kts | 99° |
| 2026-05-09 11:16 | -6.83299 | 109.43952 | 18976 ft | 309 kts | 99° |
| 2026-05-09 11:16 | -6.83599 | 109.46085 | 18679 ft | 306 kts | 99° |
| 2026-05-09 11:17 | -6.83891 | 109.48158 | 18373 ft | 304 kts | 98° |
| 2026-05-09 11:17 | -6.84187 | 109.50256 | 18076 ft | 310 kts | 98° |
| 2026-05-09 11:17 | -6.84492 | 109.52422 | 17739 ft | 323 kts | 98° |
| 2026-05-09 11:17 | -6.84807 | 109.54660 | 17389 ft | 323 kts | 98° |
| 2026-05-09 11:18 | -6.85112 | 109.56834 | 17044 ft | 316 kts | 98° |
| 2026-05-09 11:18 | -6.85413 | 109.58978 | 16722 ft | 308 kts | 98° |
| 2026-05-09 11:18 | -6.85702 | 109.61036 | 16419 ft | 300 kts | 99° |
| 2026-05-09 11:18 | -6.85987 | 109.63069 | 16126 ft | 295 kts | 98° |
| 2026-05-09 11:19 | -6.86270 | 109.65084 | 15843 ft | 292 kts | 98° |
| 2026-05-09 11:19 | -6.86550 | 109.67073 | 15567 ft | 294 kts | 99° |
| 2026-05-09 11:19 | -6.86834 | 109.69100 | 15300 ft | 307 kts | 98° |
| 2026-05-09 11:19 | -6.87130 | 109.71200 | 14988 ft | 312 kts | 98° |
| 2026-05-09 11:20 | -6.87421 | 109.73279 | 14676 ft | 306 kts | 98° |
| 2026-05-09 11:20 | -6.87706 | 109.75316 | 14370 ft | 299 kts | 99° |
| 2026-05-09 11:20 | -6.87980 | 109.77275 | 14083 ft | 292 kts | 99° |
| 2026-05-09 11:20 | -6.88255 | 109.79242 | 13771 ft | 288 kts | 99° |
| 2026-05-09 11:21 | -6.88539 | 109.81267 | 13164 ft | 297 kts | 99° |
| 2026-05-09 11:21 | -6.88822 | 109.83281 | 12604 ft | 301 kts | 98° |
| 2026-05-09 11:21 | -6.89107 | 109.85321 | 12039 ft | 302 kts | 99° |
| 2026-05-09 11:21 | -6.89396 | 109.87383 | 11474 ft | 302 kts | 98° |
| 2026-05-09 11:22 | -6.89817 | 109.89427 | 10900 ft | 302 kts | 108° |
| 2026-05-09 11:22 | -6.90491 | 109.91313 | 10395 ft | 302 kts | 111° |
| 2026-05-09 11:22 | -6.91265 | 109.93246 | 9853 ft | 302 kts | 112° |
| 2026-05-09 11:22 | -6.92030 | 109.95136 | 9263 ft | 301 kts | 112° |
| 2026-05-09 11:23 | -6.92814 | 109.97094 | 8682 ft | 300 kts | 111° |
| 2026-05-09 11:23 | -6.93546 | 109.98952 | 8119 ft | 299 kts | 111° |
| 2026-05-09 11:23 | -6.94295 | 110.00874 | 7557 ft | 298 kts | 111° |
| 2026-05-09 11:23 | -6.95041 | 110.02805 | 6989 ft | 297 kts | 111° |
| 2026-05-09 11:24 | -6.95775 | 110.04716 | 6438 ft | 295 kts | 111° |
| 2026-05-09 11:24 | -6.96513 | 110.06642 | 5859 ft | 294 kts | 111° |
| 2026-05-09 11:24 | -6.97243 | 110.08551 | 5272 ft | 292 kts | 111° |
| 2026-05-09 11:24 | -6.97970 | 110.10456 | 4700 ft | 291 kts | 111° |
| 2026-05-09 11:25 | -6.98672 | 110.12297 | 4132 ft | 289 kts | 111° |
| 2026-05-09 11:25 | -6.99373 | 110.14136 | 3576 ft | 288 kts | 111° |
| 2026-05-09 11:25 | -6.99999 | 110.16021 | 3173 ft | 281 kts | 100° |
| 2026-05-09 11:25 | -7.00147 | 110.17897 | 3054 ft | 265 kts | 93° |
| 2026-05-09 11:26 | -7.00211 | 110.19631 | 2986 ft | 253 kts | 92° |
| 2026-05-09 11:26 | -7.00314 | 110.21353 | 2973 ft | 247 kts | 101° |
| 2026-05-09 11:26 | -7.00746 | 110.23006 | 2995 ft | 249 kts | 107° |
| 2026-05-09 11:26 | -7.01201 | 110.24597 | 2980 ft | 226 kts | 106° |
| 2026-05-09 11:27 | -7.01588 | 110.26000 | 2957 ft | 197 kts | 105° |
| 2026-05-09 11:27 | -7.01924 | 110.27244 | 2954 ft | 175 kts | 105° |
| 2026-05-09 11:27 | -7.02233 | 110.28393 | 2976 ft | 168 kts | 105° |
| 2026-05-09 11:27 | -7.02427 | 110.29124 | 3020 ft | 155 kts | 106° |
| 2026-05-09 11:28 | -7.02700 | 110.30151 | 2985 ft | 152 kts | 106° |
| 2026-05-09 11:28 | -7.02956 | 110.31118 | 2975 ft | 151 kts | 106° |
| 2026-05-09 11:28 | -7.03220 | 110.32118 | 3003 ft | 151 kts | 105° |
| 2026-05-09 11:28 | -7.03488 | 110.33136 | 2995 ft | 153 kts | 105° |
| 2026-05-09 11:29 | -7.03761 | 110.34177 | 2865 ft | 157 kts | 105° |
| 2026-05-09 11:29 | -7.04037 | 110.35228 | 2617 ft | 154 kts | 105° |
| 2026-05-09 11:29 | -7.04300 | 110.36231 | 2374 ft | 151 kts | 105° |
| 2026-05-09 11:29 | -7.04554 | 110.37204 | 2372 ft | 149 kts | 105° |
| 2026-05-09 11:30 | -7.04815 | 110.38202 | 2377 ft | 152 kts | 105° |
| 2026-05-09 11:30 | -7.05068 | 110.39174 | 2380 ft | 152 kts | 105° |
| 2026-05-09 11:30 | -7.05295 | 110.40042 | 2297 ft | 154 kts | 105° |
| 2026-05-09 11:30 | -7.05566 | 110.41083 | 2069 ft | 155 kts | 105° |
| 2026-05-09 11:31 | -7.05839 | 110.42126 | 1826 ft | 153 kts | 104° |
| 2026-05-09 11:31 | -7.06112 | 110.43174 | 1586 ft | 153 kts | 104° |
| 2026-05-09 11:31 | -7.06378 | 110.44199 | 1296 ft | 157 kts | 105° |
| 2026-05-09 11:31 | -7.06544 | 110.45264 | 985 ft | 149 kts | 77° |
| 2026-05-09 11:32 | -7.05986 | 110.46065 | 990 ft | 150 kts | 24° |
| 2026-05-09 11:32 | -7.05097 | 110.46033 | 989 ft | 143 kts | 330° |
| 2026-05-09 11:32 | -7.04307 | 110.45455 | 1026 ft | 148 kts | 327° |
| 2026-05-09 11:32 | -7.03499 | 110.44857 | 980 ft | 143 kts | 316° |
| 2026-05-09 11:33 | -7.02838 | 110.44146 | 998 ft | 145 kts | 311° |
| 2026-05-09 11:33 | -7.02188 | 110.43391 | 989 ft | 146 kts | 310° |
| 2026-05-09 11:33 | -7.00895 | 110.41857 | 979 ft | 146 kts | 310° |
| 2026-05-09 11:34 | -7.00248 | 110.41087 | 809 ft | 148 kts | 311° |
| 2026-05-09 11:34 | -6.99594 | 110.40316 | 636 ft | 146 kts | 311° |
| 2026-05-09 11:34 | -6.98963 | 110.39571 | 456 ft | 145 kts | 309° |
| 2026-05-09 11:34 | -6.98333 | 110.38821 | 249 ft | 141 kts | 310° |
| 2026-05-09 11:35 | -6.97734 | 110.38107 | 49 ft | 133 kts | 309° |
| 2026-05-09 11:35 | -6.97184 | 110.37452 | 3 ft | 112 kts | 311° |
| 2026-05-09 11:35 | -6.96807 | 110.37009 | 6 ft | 49 kts | 310° |